createdAt,value
2022-12-09T00:00:34.699Z,0.91
2022-12-09T00:03:07.668Z,0.96
2022-12-09T00:05:42.346Z,1.04
2022-12-09T00:08:15.027Z,1.08
2022-12-09T00:10:47.828Z,1.14
2022-12-09T00:13:20.679Z,1.19
2022-12-09T00:15:54.306Z,1.20
2022-12-09T00:18:27.805Z,1.17
2022-12-09T00:21:00.339Z,1.15
2022-12-09T00:23:32.854Z,1.15
2022-12-09T00:26:05.536Z,1.13
2022-12-09T00:28:38.244Z,1.13
2022-12-09T00:31:15.001Z,1.12
2022-12-09T00:33:47.858Z,1.13
2022-12-09T00:36:22.420Z,1.10
2022-12-09T00:38:56.748Z,1.09
2022-12-09T00:41:29.498Z,1.11
2022-12-09T00:44:01.962Z,1.13
2022-12-09T00:46:35.160Z,1.11
2022-12-09T00:49:08.404Z,1.07
2022-12-09T00:51:41.694Z,1.04
2022-12-09T00:54:14.923Z,0.99
2022-12-09T00:56:47.776Z,0.93
2022-12-09T00:59:20.963Z,0.88
2022-12-09T01:01:54.592Z,0.79
2022-12-09T01:04:28.057Z,0.79
2022-12-09T01:07:01.227Z,0.80
2022-12-09T01:09:35.852Z,0.83
2022-12-09T01:12:09.261Z,0.90
2022-12-09T01:14:42.206Z,0.91
2022-12-09T01:17:15.082Z,0.95
2022-12-09T01:19:48.803Z,0.96
2022-12-09T01:22:21.440Z,0.98
2022-12-09T01:24:54.615Z,0.90
2022-12-09T01:27:27.678Z,0.88
2022-12-09T01:30:00.861Z,0.86
2022-12-09T01:32:33.665Z,0.79
2022-12-09T01:35:07.257Z,0.76
2022-12-09T01:37:40.214Z,0.76
2022-12-09T01:40:17.178Z,0.77
2022-12-09T01:42:52.137Z,0.80
2022-12-09T01:45:32.751Z,0.84
2022-12-09T01:48:17.365Z,0.88
2022-12-09T01:51:02.348Z,0.87
2022-12-09T01:53:38.839Z,0.87
2022-12-09T01:56:25.700Z,0.82
2022-12-09T01:59:01.941Z,0.78
2022-12-09T02:01:34.548Z,0.74
2022-12-09T02:04:08.072Z,0.72
2022-12-09T02:06:42.048Z,0.71
2022-12-09T02:09:15.533Z,0.71
2022-12-09T02:12:13.240Z,0.72
2022-12-09T02:14:51.242Z,0.75
2022-12-09T02:17:35.190Z,0.75
2022-12-09T02:20:27.064Z,0.78
2022-12-09T02:23:07.465Z,0.72
2022-12-09T02:25:50.905Z,0.71
2022-12-09T02:28:37.234Z,0.68
2022-12-09T02:32:16.358Z,0.72
2022-12-09T02:35:03.278Z,0.70
2022-12-09T02:37:41.111Z,0.67
2022-12-09T02:40:24.228Z,0.64
2022-12-09T02:42:57.048Z,0.62
2022-12-09T02:45:29.894Z,0.68
2022-12-09T02:48:03.053Z,0.75
2022-12-09T02:50:38.095Z,0.78
2022-12-09T02:53:12.963Z,0.76
2022-12-09T02:55:46.423Z,0.75
2022-12-09T02:58:19.622Z,0.77
2022-12-09T03:00:52.389Z,0.80
2022-12-09T03:03:25.372Z,0.81
2022-12-09T03:06:11.541Z,0.81
2022-12-09T03:08:51.532Z,0.79
2022-12-09T03:11:25.596Z,0.81
2022-12-09T03:14:30.890Z,0.73
2022-12-09T03:17:08.297Z,0.67
2022-12-09T03:20:02.311Z,0.68
2022-12-09T03:22:36.297Z,0.73
2022-12-09T03:25:31.484Z,0.78
2022-12-09T03:28:13.857Z,0.80
2022-12-09T03:30:47.067Z,0.76
2022-12-09T03:33:20.450Z,0.77
2022-12-09T03:35:57.721Z,0.78
2022-12-09T03:38:33.899Z,0.81
2022-12-09T03:41:30.873Z,0.84
2022-12-09T03:44:13.912Z,0.84
2022-12-09T03:46:47.000Z,0.82
2022-12-09T03:49:20.195Z,0.86
2022-12-09T03:52:00.320Z,0.91
2022-12-09T03:54:40.896Z,0.93
2022-12-09T03:57:18.953Z,0.94
2022-12-09T03:59:58.613Z,0.92
2022-12-09T04:02:31.518Z,0.91
2022-12-09T04:05:04.358Z,0.95
2022-12-09T04:07:38.067Z,0.98
2022-12-09T04:10:11.124Z,1.01
2022-12-09T04:12:44.603Z,0.99
2022-12-09T04:15:17.556Z,0.96
2022-12-09T04:17:50.572Z,0.96
2022-12-09T04:20:23.088Z,1.03
2022-12-09T04:22:56.895Z,1.07
2022-12-09T04:25:29.789Z,1.06
2022-12-09T04:28:02.339Z,1.03
2022-12-09T04:30:35.084Z,1.05
2022-12-09T04:33:07.776Z,1.07
2022-12-09T04:35:41.571Z,1.05
2022-12-09T04:38:14.174Z,1.05
2022-12-09T04:40:46.714Z,1.05
2022-12-09T04:43:19.348Z,1.06
2022-12-09T04:45:51.955Z,1.03
2022-12-09T04:48:24.695Z,1.02
2022-12-09T04:50:57.325Z,0.99
2022-12-09T04:53:30.004Z,0.93
2022-12-09T04:56:04.902Z,0.91
2022-12-09T04:58:38.470Z,0.92
2022-12-09T05:01:13.153Z,0.92
2022-12-09T05:03:47.904Z,0.91
2022-12-09T05:06:22.421Z,0.90
2022-12-09T05:08:55.308Z,0.87
2022-12-09T05:11:28.895Z,0.84
2022-12-09T05:14:03.013Z,0.79
2022-12-09T05:16:35.796Z,0.78
2022-12-09T05:19:10.607Z,0.75
2022-12-09T05:21:44.054Z,0.74
2022-12-09T05:24:16.780Z,0.75
2022-12-09T05:26:49.591Z,0.74
2022-12-09T05:29:23.875Z,0.74
2022-12-09T05:31:57.407Z,0.71
2022-12-09T05:34:30.493Z,0.71
2022-12-09T05:37:03.729Z,0.73
2022-12-09T05:39:36.362Z,0.73
2022-12-09T05:42:09.936Z,0.76
2022-12-09T05:44:42.829Z,0.79
2022-12-09T05:47:15.720Z,0.76
2022-12-09T05:49:49.576Z,0.75
2022-12-09T05:52:22.240Z,0.76
2022-12-09T05:54:55.469Z,0.71
2022-12-09T05:57:28.391Z,0.72
2022-12-09T06:00:00.897Z,0.69
2022-12-09T06:02:35.872Z,0.68
2022-12-09T06:05:10.303Z,0.69
2022-12-09T06:07:44.131Z,0.71
2022-12-09T06:10:17.674Z,0.74
2022-12-09T06:12:51.224Z,0.74
2022-12-09T06:15:29.607Z,0.72
2022-12-09T06:17:58.792Z,0.70
2022-12-09T06:20:31.468Z,0.71
2022-12-09T06:23:15.471Z,0.75
2022-12-09T06:25:48.434Z,0.78
2022-12-09T06:28:21.574Z,0.77
2022-12-09T06:30:54.534Z,0.76
2022-12-09T06:33:53.663Z,0.80
2022-12-09T06:36:05.301Z,0.83
2022-12-09T06:38:38.854Z,0.87
2022-12-09T06:41:14.262Z,0.91
2022-12-09T06:43:47.495Z,0.92
2022-12-09T06:46:26.104Z,0.91
2022-12-09T06:48:59.383Z,0.96
2022-12-09T06:51:32.593Z,0.95
2022-12-09T06:54:07.273Z,0.94
2022-12-09T06:56:40.434Z,0.95
2022-12-09T06:59:13.239Z,0.97
2022-12-09T07:01:46.767Z,0.98
2022-12-09T07:04:19.696Z,0.94
2022-12-09T07:06:52.931Z,0.92
2022-12-09T15:53:07.041Z,2.63
2022-12-09T15:55:52.923Z,2.56
2022-12-09T15:58:30.541Z,2.54
2022-12-09T16:01:03.506Z,2.54
2022-12-09T16:03:36.885Z,2.54
2022-12-09T16:06:10.300Z,2.54
2022-12-09T16:08:46.811Z,2.54
2022-12-09T16:11:43.538Z,2.56
2022-12-09T16:14:16.707Z,2.57
2022-12-09T16:16:58.065Z,2.59
2022-12-09T16:19:38.426Z,2.57
2022-12-09T16:22:24.834Z,2.56
2022-12-09T16:25:16.564Z,2.54
2022-12-09T16:30:30.959Z,2.62
2022-12-09T16:33:05.108Z,2.57
2022-12-09T16:35:44.386Z,2.59
2022-12-09T16:38:19.519Z,2.63
2022-12-09T16:40:56.740Z,2.63
2022-12-09T16:43:30.693Z,2.65
2022-12-09T16:46:27.769Z,2.67
2022-12-09T16:49:04.768Z,2.69
2022-12-09T16:51:36.208Z,2.70
2022-12-09T16:54:20.087Z,2.71
2022-12-09T16:56:51.514Z,2.75
2022-12-09T16:59:24.015Z,2.76
2022-12-09T17:01:56.534Z,2.77
2022-12-09T17:04:29.917Z,2.76
2022-12-09T17:07:02.359Z,2.74
2022-12-09T17:09:35.483Z,2.71
2022-12-09T17:12:08.557Z,2.75
2022-12-09T17:14:41.176Z,2.74
2022-12-09T17:17:13.672Z,2.73
2022-12-09T17:19:46.926Z,2.74
2022-12-09T17:22:20.859Z,2.77
2022-12-09T17:24:53.409Z,2.81
2022-12-09T17:27:25.827Z,2.86
2022-12-09T17:29:58.586Z,2.87
2022-12-09T17:32:31.165Z,2.90
2022-12-09T17:35:07.467Z,2.90
2022-12-09T17:37:37.144Z,2.91
2022-12-09T17:40:10.959Z,2.92
2022-12-09T17:42:43.491Z,2.88
2022-12-09T17:45:15.983Z,2.85
2022-12-09T17:47:50.233Z,2.85
2022-12-09T17:50:22.188Z,2.89
2022-12-09T17:52:55.108Z,2.89
2022-12-09T17:55:29.092Z,2.89
2022-12-09T17:58:01.765Z,2.89
2022-12-09T18:00:34.262Z,2.86
2022-12-09T18:03:07.084Z,2.83
2022-12-09T18:05:40.212Z,2.82
2022-12-09T18:08:12.971Z,2.80
2022-12-09T18:10:45.637Z,2.78
2022-12-09T18:13:18.162Z,2.74
2022-12-09T18:15:54.290Z,2.73
2022-12-09T18:18:24.702Z,2.72
2022-12-09T18:21:01.788Z,2.69
2022-12-09T18:23:34.371Z,2.65
2022-12-09T18:26:15.403Z,2.63
2022-12-09T18:28:48.043Z,2.62
2022-12-09T18:31:20.420Z,2.60
2022-12-09T18:33:53.819Z,2.60
2022-12-09T18:36:28.057Z,2.55
2022-12-09T18:39:00.589Z,2.53
2022-12-09T18:41:34.127Z,2.54
2022-12-09T18:44:07.991Z,2.54
2022-12-09T18:46:43.691Z,2.57
2022-12-09T18:49:20.148Z,2.59
2022-12-09T18:51:53.318Z,2.60
2022-12-09T18:54:29.006Z,2.61
2022-12-09T18:57:04.743Z,2.60
2022-12-09T18:59:37.422Z,2.61
2022-12-09T19:02:13.091Z,2.59
2022-12-09T19:04:48.216Z,2.63
2022-12-09T19:07:20.624Z,2.68
2022-12-09T19:09:53.373Z,2.73
2022-12-09T19:15:00.624Z,2.81
2022-12-09T19:17:33.816Z,2.81
2022-12-09T19:20:08.028Z,2.83
2022-12-09T19:22:41.671Z,2.80
2022-12-09T19:25:14.114Z,2.82
2022-12-09T19:27:47.208Z,2.83
2022-12-09T19:30:19.874Z,2.85
2022-12-09T19:32:53.675Z,2.84
2022-12-09T19:35:26.439Z,2.80
2022-12-09T19:38:01.608Z,2.74
2022-12-09T19:40:34.273Z,2.69
2022-12-09T19:43:08.533Z,2.65
2022-12-09T19:45:40.285Z,2.67
2022-12-09T19:48:12.615Z,2.67
2022-12-09T19:50:45.093Z,2.63
2022-12-09T19:53:17.914Z,2.62
2022-12-09T19:55:50.259Z,2.63
2022-12-09T19:58:23.279Z,2.60
2022-12-09T20:00:56.631Z,2.63
2022-12-09T20:03:29.150Z,2.63
2022-12-09T20:06:01.877Z,2.66
2022-12-09T20:08:34.315Z,2.68
2022-12-09T20:11:20.289Z,2.74
2022-12-09T20:13:53.201Z,2.77
2022-12-09T20:16:27.015Z,2.82
2022-12-09T20:19:00.515Z,2.82
2022-12-09T20:21:33.639Z,2.81
2022-12-09T20:24:06.825Z,2.81
2022-12-09T20:26:40.025Z,2.82
2022-12-09T20:29:12.563Z,2.82
2022-12-09T20:31:45.161Z,2.82
2022-12-09T20:34:18.197Z,2.83
2022-12-09T20:36:50.780Z,2.80
2022-12-09T20:39:23.304Z,2.80
2022-12-09T20:41:55.948Z,2.79
2022-12-09T20:44:29.287Z,2.76
2022-12-09T20:47:01.743Z,2.72
2022-12-09T20:49:34.141Z,2.68
2022-12-09T20:52:06.547Z,2.68
2022-12-09T20:54:39.133Z,2.67
2022-12-09T20:57:11.581Z,2.69
2022-12-09T20:59:44.164Z,2.73
2022-12-09T21:02:17.068Z,2.77
2022-12-09T21:04:49.558Z,2.78
2022-12-09T21:07:22.339Z,2.81
2022-12-09T21:09:54.715Z,2.83
2022-12-09T21:12:27.203Z,2.86
2022-12-09T21:14:59.883Z,2.89
2022-12-09T21:17:32.770Z,2.89
2022-12-09T21:20:06.225Z,2.90
2022-12-09T21:22:40.172Z,2.90
2022-12-09T21:25:12.578Z,2.94
2022-12-09T21:27:45.138Z,2.96
2022-12-09T21:30:17.434Z,2.96
2022-12-09T21:32:50.094Z,2.94
2022-12-09T21:35:23.172Z,2.92
2022-12-09T21:37:56.334Z,2.94
2022-12-09T21:40:28.859Z,2.94
2022-12-09T21:43:01.707Z,2.91
2022-12-09T21:45:35.656Z,2.89
2022-12-09T21:48:08.431Z,2.91
2022-12-09T21:50:40.732Z,2.92
2022-12-09T21:53:13.128Z,2.92
2022-12-09T21:55:45.967Z,2.91
2022-12-09T21:58:18.586Z,2.88
2022-12-09T22:00:52.059Z,2.84
2022-12-09T22:03:24.902Z,2.81
2022-12-09T22:05:59.456Z,2.82
2022-12-09T22:08:32.177Z,2.81
2022-12-09T22:11:11.035Z,2.82
2022-12-09T22:13:43.630Z,2.81
2022-12-09T22:16:20.090Z,2.79
2022-12-09T22:19:01.425Z,2.74
2022-12-09T22:21:34.658Z,2.74
2022-12-09T22:24:09.552Z,2.71
2022-12-09T22:26:44.339Z,2.65
2022-12-09T22:29:17.772Z,2.59
2022-12-09T22:31:50.234Z,2.57
2022-12-09T22:34:22.911Z,2.59
2022-12-09T22:36:56.077Z,2.59
2022-12-09T22:39:29.187Z,2.59
2022-12-09T22:42:01.751Z,2.58
2022-12-09T22:44:35.464Z,2.59
2022-12-09T22:47:08.822Z,2.61
2022-12-09T22:49:41.324Z,2.62
2022-12-09T22:52:14.219Z,2.62
2022-12-09T22:54:47.408Z,2.64
2022-12-09T22:57:19.803Z,2.67
2022-12-09T22:59:53.337Z,2.65
2022-12-09T23:02:26.248Z,2.64
2022-12-09T23:04:58.851Z,2.64
2022-12-09T23:07:31.428Z,2.61
2022-12-09T23:10:04.383Z,2.61
2022-12-09T23:12:37.449Z,2.65
2022-12-09T23:15:11.047Z,2.65
2022-12-09T23:17:43.666Z,2.62
2022-12-09T23:20:16.954Z,2.60
2022-12-09T23:22:49.359Z,2.63
2022-12-09T23:25:22.177Z,2.67
2022-12-09T23:27:54.901Z,2.71
2022-12-09T23:30:28.328Z,2.72
2022-12-09T23:33:00.865Z,2.69
2022-12-09T23:35:33.723Z,2.70
2022-12-09T23:38:06.399Z,2.69
2022-12-09T23:40:39.111Z,2.72
2022-12-09T23:43:11.530Z,2.70
2022-12-09T23:45:44.202Z,2.70
2022-12-09T23:48:16.638Z,2.67
2022-12-09T23:50:50.342Z,2.68
2022-12-09T23:53:23.526Z,2.70
2022-12-09T23:55:56.552Z,2.75
2022-12-09T23:58:29.029Z,2.75
